sensor_id;sensor_type;location;lat;lon;timestamp;pressure;altitude;pressure_sealevel;temperature;humidity
32933;BME280;19444;50.518;10.870;2023-11-22T00:02:47;96968.53;;;1.83;100.00
32933;BME280;19444;50.518;10.870;2023-11-22T00:05:44;96967.75;;;1.37;100.00
32933;BME280;19444;50.518;10.870;2023-11-22T00:08:41;96960.56;;;1.32;100.00
32933;BME280;19444;50.518;10.870;2023-11-22T00:11:38;96962.50;;;1.54;100.00
32933;BME280;19444;50.518;10.870;2023-11-22T00:14:35;96971.50;;;1.24;100.00
32933;BME280;19444;50.518;10.870;2023-11-22T00:17:34;96970.63;;;1.35;100.00
32933;BME280;19444;50.518;10.870;2023-11-22T00:20:31;96965.06;;;1.49;100.00
32933;BME280;19444;50.518;10.870;2023-11-22T00:23:30;96969.16;;;1.28;100.00
32933;BME280;19444;50.518;10.870;2023-11-22T00:26:27;96979.34;;;1.07;100.00
32933;BME280;19444;50.518;10.870;2023-11-22T00:29:24;96973.38;;;0.72;100.00
32933;BME280;19444;50.518;10.870;2023-11-22T00:32:21;96973.38;;;1.12;100.00
32933;BME280;19444;50.518;10.870;2023-11-22T00:35:18;96968.44;;;1.16;100.00
32933;BME280;19444;50.518;10.870;2023-11-22T00:38:15;96985.47;;;0.96;100.00
32933;BME280;19444;50.518;10.870;2023-11-22T00:41:13;96992.59;;;0.96;100.00
32933;BME280;19444;50.518;10.870;2023-11-22T00:44:14;97009.16;;;1.20;100.00
32933;BME280;19444;50.518;10.870;2023-11-22T00:47:11;97019.34;;;0.88;100.00
32933;BME280;19444;50.518;10.870;2023-11-22T00:50:08;97017.31;;;1.18;100.00
32933;BME280;19444;50.518;10.870;2023-11-22T00:53:05;97018.63;;;1.04;100.00
32933;BME280;19444;50.518;10.870;2023-11-22T00:56:04;97019.41;;;1.04;100.00
32933;BME280;19444;50.518;10.870;2023-11-22T00:59:03;97030.06;;;1.09;100.00
32933;BME280;19444;50.518;10.870;2023-11-22T01:02:00;97033.34;;;0.88;100.00
32933;BME280;19444;50.518;10.870;2023-11-22T01:05:01;97030.47;;;1.01;100.00
32933;BME280;19444;50.518;10.870;2023-11-22T01:07:58;97046.06;;;0.79;100.00
32933;BME280;19444;50.518;10.870;2023-11-22T01:10:55;97046.66;;;0.81;100.00
32933;BME280;19444;50.518;10.870;2023-11-22T01:13:54;97040.72;;;0.74;100.00
32933;BME280;19444;50.518;10.870;2023-11-22T01:16:52;97049.22;;;0.65;100.00
32933;BME280;19444;50.518;10.870;2023-11-22T01:19:49;97041.63;;;0.68;100.00
32933;BME280;19444;50.518;10.870;2023-11-22T01:22:47;97056.59;;;0.91;100.00
32933;BME280;19444;50.518;10.870;2023-11-22T01:25:44;97079.47;;;0.50;100.00
32933;BME280;19444;50.518;10.870;2023-11-22T01:28:41;97089.78;;;0.52;100.00
32933;BME280;19444;50.518;10.870;2023-11-22T01:31:40;97104.47;;;0.48;100.00
32933;BME280;19444;50.518;10.870;2023-11-22T01:34:38;97103.78;;;0.52;100.00
32933;BME280;19444;50.518;10.870;2023-11-22T01:37:35;97115.47;;;0.68;100.00
32933;BME280;19444;50.518;10.870;2023-11-22T01:40:33;97094.25;;;0.51;100.00
32933;BME280;19444;50.518;10.870;2023-11-22T01:43:31;97107.22;;;0.41;100.00
32933;BME280;19444;50.518;10.870;2023-11-22T01:46:28;97101.22;;;0.22;100.00
32933;BME280;19444;50.518;10.870;2023-11-22T01:49:26;97108.19;;;0.17;100.00
32933;BME280;19444;50.518;10.870;2023-11-22T01:52:23;97098.25;;;0.19;100.00
32933;BME280;19444;50.518;10.870;2023-11-22T01:55:20;97104.66;;;0.23;100.00
32933;BME280;19444;50.518;10.870;2023-11-22T01:58:17;97118.03;;;0.10;100.00
32933;BME280;19444;50.518;10.870;2023-11-22T02:01:14;97114.38;;;0.11;100.00
32933;BME280;19444;50.518;10.870;2023-11-22T02:04:12;97106.16;;;0.19;100.00
32933;BME280;19444;50.518;10.870;2023-11-22T02:07:09;97111.06;;;0.27;100.00
32933;BME280;19444;50.518;10.870;2023-11-22T02:10:07;97101.31;;;0.16;100.00
32933;BME280;19444;50.518;10.870;2023-11-22T02:13:06;97098.97;;;0.38;100.00
32933;BME280;19444;50.518;10.870;2023-11-22T02:16:04;97098.72;;;0.63;100.00
32933;BME280;19444;50.518;10.870;2023-11-22T02:19:01;97099.28;;;0.41;100.00
32933;BME280;19444;50.518;10.870;2023-11-22T02:21:59;97104.94;;;0.68;100.00
32933;BME280;19444;50.518;10.870;2023-11-22T02:24:56;97106.88;;;0.61;100.00
32933;BME280;19444;50.518;10.870;2023-11-22T02:27:53;97121.88;;;0.37;100.00
32933;BME280;19444;50.518;10.870;2023-11-22T02:30:50;97125.91;;;0.40;100.00
32933;BME280;19444;50.518;10.870;2023-11-22T02:33:48;97117.88;;;0.46;100.00
32933;BME280;19444;50.518;10.870;2023-11-22T02:36:45;97114.88;;;0.54;100.00
32933;BME280;19444;50.518;10.870;2023-11-22T02:40:21;97104.81;;;0.63;100.00
32933;BME280;19444;50.518;10.870;2023-11-22T02:43:18;97114.09;;;0.42;100.00
32933;BME280;19444;50.518;10.870;2023-11-22T02:46:15;97113.97;;;0.61;100.00
32933;BME280;19444;50.518;10.870;2023-11-22T02:49:12;97113.41;;;0.70;100.00
32933;BME280;19444;50.518;10.870;2023-11-22T02:52:09;97118.88;;;0.45;100.00
32933;BME280;19444;50.518;10.870;2023-11-22T02:55:09;97127.72;;;0.51;100.00
32933;BME280;19444;50.518;10.870;2023-11-22T02:58:07;97145.34;;;0.27;100.00
32933;BME280;19444;50.518;10.870;2023-11-22T03:01:04;97144.81;;;0.37;100.00
32933;BME280;19444;50.518;10.870;2023-11-22T03:04:00;97157.78;;;0.08;100.00
32933;BME280;19444;50.518;10.870;2023-11-22T03:06:57;97148.16;;;0.67;100.00
32933;BME280;19444;50.518;10.870;2023-11-22T03:09:54;97142.13;;;0.25;100.00
32933;BME280;19444;50.518;10.870;2023-11-22T03:12:52;97152.19;;;0.16;100.00
32933;BME280;19444;50.518;10.870;2023-11-22T03:15:49;97164.88;;;0.38;100.00
32933;BME280;19444;50.518;10.870;2023-11-22T03:18:46;97169.50;;;0.77;100.00
32933;BME280;19444;50.518;10.870;2023-11-22T03:21:43;97165.38;;;0.81;100.00
32933;BME280;19444;50.518;10.870;2023-11-22T03:24:40;97157.50;;;0.28;100.00
32933;BME280;19444;50.518;10.870;2023-11-22T03:27:38;97166.97;;;0.17;100.00
32933;BME280;19444;50.518;10.870;2023-11-22T03:30:35;97162.72;;;0.58;100.00
32933;BME280;19444;50.518;10.870;2023-11-22T03:33:32;97162.22;;;0.38;100.00
32933;BME280;19444;50.518;10.870;2023-11-22T03:36:29;97176.31;;;0.43;100.00
32933;BME280;19444;50.518;10.870;2023-11-22T03:39:26;97183.81;;;0.58;100.00
32933;BME280;19444;50.518;10.870;2023-11-22T03:42:23;97184.97;;;0.62;100.00
32933;BME280;19444;50.518;10.870;2023-11-22T03:45:20;97182.53;;;0.49;100.00
32933;BME280;19444;50.518;10.870;2023-11-22T03:48:17;97185.34;;;-0.06;100.00
32933;BME280;19444;50.518;10.870;2023-11-22T03:51:14;97194.00;;;0.54;100.00
32933;BME280;19444;50.518;10.870;2023-11-22T03:54:12;97193.56;;;0.57;100.00
32933;BME280;19444;50.518;10.870;2023-11-22T03:57:09;97205.56;;;0.42;100.00
32933;BME280;19444;50.518;10.870;2023-11-22T04:00:07;97194.28;;;0.76;100.00
32933;BME280;19444;50.518;10.870;2023-11-22T04:03:04;97200.53;;;0.10;100.00
32933;BME280;19444;50.518;10.870;2023-11-22T04:06:01;97209.78;;;0.01;100.00
32933;BME280;19444;50.518;10.870;2023-11-22T04:08:59;97206.69;;;0.04;100.00
32933;BME280;19444;50.518;10.870;2023-11-22T04:11:56;97206.06;;;0.20;100.00
32933;BME280;19444;50.518;10.870;2023-11-22T04:14:52;97217.78;;;0.90;100.00
32933;BME280;19444;50.518;10.870;2023-11-22T04:17:50;97211.84;;;0.29;100.00
32933;BME280;19444;50.518;10.870;2023-11-22T04:20:47;97219.00;;;0.64;100.00
32933;BME280;19444;50.518;10.870;2023-11-22T04:23:44;97225.22;;;0.57;100.00
32933;BME280;19444;50.518;10.870;2023-11-22T04:26:41;97229.44;;;-0.02;100.00
32933;BME280;19444;50.518;10.870;2023-11-22T04:29:38;97242.66;;;0.28;100.00
32933;BME280;19444;50.518;10.870;2023-11-22T04:32:36;97240.88;;;0.41;100.00
32933;BME280;19444;50.518;10.870;2023-11-22T04:35:33;97233.06;;;-0.14;100.00
32933;BME280;19444;50.518;10.870;2023-11-22T04:38:34;97225.19;;;0.16;100.00
32933;BME280;19444;50.518;10.870;2023-11-22T04:41:31;97233.28;;;-0.16;100.00
32933;BME280;19444;50.518;10.870;2023-11-22T04:44:28;97229.09;;;-0.05;100.00
32933;BME280;19444;50.518;10.870;2023-11-22T04:47:25;97235.97;;;-0.04;100.00
32933;BME280;19444;50.518;10.870;2023-11-22T04:50:23;97240.94;;;0.04;100.00
32933;BME280;19444;50.518;10.870;2023-11-22T04:53:21;97238.16;;;-0.01;100.00
32933;BME280;19444;50.518;10.870;2023-11-22T04:56:17;97253.66;;;0.07;100.00
32933;BME280;19444;50.518;10.870;2023-11-22T04:59:14;97249.19;;;0.08;100.00
32933;BME280;19444;50.518;10.870;2023-11-22T05:02:12;97261.06;;;-0.02;100.00
32933;BME280;19444;50.518;10.870;2023-11-22T05:05:09;97264.16;;;-0.05;100.00
32933;BME280;19444;50.518;10.870;2023-11-22T05:08:09;97265.69;;;0.03;100.00
32933;BME280;19444;50.518;10.870;2023-11-22T05:11:06;97261.03;;;0.17;100.00
32933;BME280;19444;50.518;10.870;2023-11-22T05:14:04;97254.47;;;0.08;100.00
32933;BME280;19444;50.518;10.870;2023-11-22T05:17:01;97270.47;;;-0.06;100.00
32933;BME280;19444;50.518;10.870;2023-11-22T05:19:58;97271.00;;;0.15;100.00
32933;BME280;19444;50.518;10.870;2023-11-22T05:22:55;97281.97;;;0.30;100.00
32933;BME280;19444;50.518;10.870;2023-11-22T05:25:52;97281.41;;;0.28;100.00
32933;BME280;19444;50.518;10.870;2023-11-22T05:28:49;97302.19;;;0.18;100.00
32933;BME280;19444;50.518;10.870;2023-11-22T05:31:46;97309.44;;;0.22;100.00
32933;BME280;19444;50.518;10.870;2023-11-22T05:34:43;97320.50;;;0.13;100.00
32933;BME280;19444;50.518;10.870;2023-11-22T05:37:40;97314.78;;;-0.03;100.00
32933;BME280;19444;50.518;10.870;2023-11-22T05:40:37;97323.00;;;-0.11;100.00
32933;BME280;19444;50.518;10.870;2023-11-22T05:43:35;97339.25;;;0.05;100.00
32933;BME280;19444;50.518;10.870;2023-11-22T05:46:33;97343.66;;;0.11;100.00
32933;BME280;19444;50.518;10.870;2023-11-22T05:49:30;97344.59;;;0.16;100.00
32933;BME280;19444;50.518;10.870;2023-11-22T05:52:27;97347.88;;;-0.07;100.00
32933;BME280;19444;50.518;10.870;2023-11-22T05:55:24;97355.34;;;-0.04;100.00
32933;BME280;19444;50.518;10.870;2023-11-22T05:58:21;97358.16;;;0.02;100.00
32933;BME280;19444;50.518;10.870;2023-11-22T06:01:18;97364.34;;;0.07;100.00
32933;BME280;19444;50.518;10.870;2023-11-22T06:04:14;97366.63;;;-0.15;100.00
32933;BME280;19444;50.518;10.870;2023-11-22T06:07:11;97380.69;;;0.16;100.00
32933;BME280;19444;50.518;10.870;2023-11-22T06:10:09;97372.34;;;0.19;100.00
32933;BME280;19444;50.518;10.870;2023-11-22T06:13:06;97373.97;;;0.38;100.00
32933;BME280;19444;50.518;10.870;2023-11-22T06:16:03;97374.38;;;-0.02;100.00
32933;BME280;19444;50.518;10.870;2023-11-22T06:19:00;97380.31;;;-0.06;100.00
32933;BME280;19444;50.518;10.870;2023-11-22T06:21:57;97379.13;;;0.08;100.00
32933;BME280;19444;50.518;10.870;2023-11-22T06:24:54;97376.59;;;0.20;100.00
32933;BME280;19444;50.518;10.870;2023-11-22T06:27:51;97383.94;;;-0.25;100.00
32933;BME280;19444;50.518;10.870;2023-11-22T06:30:48;97380.66;;;-0.03;100.00
32933;BME280;19444;50.518;10.870;2023-11-22T06:33:44;97382.13;;;-0.25;100.00
32933;BME280;19444;50.518;10.870;2023-11-22T06:36:41;97367.44;;;-0.64;100.00
32933;BME280;19444;50.518;10.870;2023-11-22T06:39:38;97374.47;;;-0.33;100.00
32933;BME280;19444;50.518;10.870;2023-11-22T06:42:35;97398.50;;;-0.23;100.00
32933;BME280;19444;50.518;10.870;2023-11-22T06:45:32;97403.81;;;-0.30;100.00
32933;BME280;19444;50.518;10.870;2023-11-22T06:48:29;97412.25;;;-0.21;100.00
32933;BME280;19444;50.518;10.870;2023-11-22T06:51:26;97424.59;;;-0.46;100.00
32933;BME280;19444;50.518;10.870;2023-11-22T06:54:23;97421.09;;;-0.34;100.00
32933;BME280;19444;50.518;10.870;2023-11-22T06:57:20;97427.25;;;-0.46;100.00
32933;BME280;19444;50.518;10.870;2023-11-22T07:00:24;97425.97;;;-0.62;100.00
32933;BME280;19444;50.518;10.870;2023-11-22T07:03:24;97430.41;;;-0.63;100.00
32933;BME280;19444;50.518;10.870;2023-11-22T07:06:21;97425.34;;;-0.64;100.00
32933;BME280;19444;50.518;10.870;2023-11-22T07:09:19;97432.63;;;-0.60;100.00
32933;BME280;19444;50.518;10.870;2023-11-22T07:12:16;97432.50;;;-0.71;100.00
32933;BME280;19444;50.518;10.870;2023-11-22T07:15:13;97436.38;;;-0.49;100.00
32933;BME280;19444;50.518;10.870;2023-11-22T07:18:10;97453.97;;;-0.43;100.00
32933;BME280;19444;50.518;10.870;2023-11-22T07:21:08;97464.38;;;-0.54;100.00
32933;BME280;19444;50.518;10.870;2023-11-22T07:24:06;97470.47;;;-0.29;100.00
32933;BME280;19444;50.518;10.870;2023-11-22T07:27:05;97471.09;;;-0.59;100.00
32933;BME280;19444;50.518;10.870;2023-11-22T07:30:04;97474.94;;;-0.61;100.00
32933;BME280;19444;50.518;10.870;2023-11-22T07:33:01;97475.16;;;-0.63;100.00
32933;BME280;19444;50.518;10.870;2023-11-22T07:35:58;97478.25;;;-0.41;100.00
32933;BME280;19444;50.518;10.870;2023-11-22T07:38:55;97476.34;;;-0.27;100.00
32933;BME280;19444;50.518;10.870;2023-11-22T07:41:52;97467.44;;;-0.96;100.00
32933;BME280;19444;50.518;10.870;2023-11-22T07:44:49;97477.63;;;-0.36;100.00
32933;BME280;19444;50.518;10.870;2023-11-22T07:47:52;97484.41;;;-0.22;100.00
32933;BME280;19444;50.518;10.870;2023-11-22T07:50:50;97474.41;;;-0.13;100.00
32933;BME280;19444;50.518;10.870;2023-11-22T07:53:48;97459.75;;;-0.09;100.00
32933;BME280;19444;50.518;10.870;2023-11-22T07:56:45;97470.44;;;1.12;100.00
32933;BME280;19444;50.518;10.870;2023-11-22T07:59:44;97477.88;;;0.49;100.00
32933;BME280;19444;50.518;10.870;2023-11-22T08:02:41;97475.06;;;-0.49;100.00
32933;BME280;19444;50.518;10.870;2023-11-22T08:05:40;97465.09;;;-0.16;100.00
32933;BME280;19444;50.518;10.870;2023-11-22T08:08:37;97465.97;;;-0.22;100.00
32933;BME280;19444;50.518;10.870;2023-11-22T08:11:36;97467.22;;;-0.56;100.00
32933;BME280;19444;50.518;10.870;2023-11-22T08:14:33;97459.13;;;-0.30;100.00
32933;BME280;19444;50.518;10.870;2023-11-22T08:17:30;97456.22;;;-0.21;100.00
32933;BME280;19444;50.518;10.870;2023-11-22T08:20:29;97467.03;;;-0.05;100.00
32933;BME280;19444;50.518;10.870;2023-11-22T08:23:27;97468.38;;;0.05;100.00
32933;BME280;19444;50.518;10.870;2023-11-22T08:26:24;97468.47;;;-0.34;100.00
32933;BME280;19444;50.518;10.870;2023-11-22T08:29:22;97477.88;;;-0.19;100.00
32933;BME280;19444;50.518;10.870;2023-11-22T08:32:19;97486.19;;;-0.16;100.00
32933;BME280;19444;50.518;10.870;2023-11-22T08:35:20;97475.03;;;-0.43;100.00
32933;BME280;19444;50.518;10.870;2023-11-22T08:38:18;97473.78;;;-0.09;100.00
32933;BME280;19444;50.518;10.870;2023-11-22T08:41:16;97467.56;;;-0.21;100.00
32933;BME280;19444;50.518;10.870;2023-11-22T08:44:13;97463.47;;;-0.42;100.00
32933;BME280;19444;50.518;10.870;2023-11-22T08:47:10;97446.72;;;-0.22;100.00
32933;BME280;19444;50.518;10.870;2023-11-22T08:50:08;97462.34;;;-0.28;100.00
32933;BME280;19444;50.518;10.870;2023-11-22T08:53:07;97445.31;;;-0.25;100.00
32933;BME280;19444;50.518;10.870;2023-11-22T08:56:05;97439.88;;;-0.30;100.00
32933;BME280;19444;50.518;10.870;2023-11-22T08:59:03;97441.97;;;-0.39;100.00
32933;BME280;19444;50.518;10.870;2023-11-22T09:02:02;97442.09;;;-0.52;100.00
32933;BME280;19444;50.518;10.870;2023-11-22T09:04:59;97452.72;;;-0.40;100.00
32933;BME280;19444;50.518;10.870;2023-11-22T09:07:56;97456.03;;;-0.83;100.00
32933;BME280;19444;50.518;10.870;2023-11-22T09:11:03;97467.81;;;-0.54;100.00
32933;BME280;19444;50.518;10.870;2023-11-22T09:14:03;97469.03;;;-0.57;100.00
32933;BME280;19444;50.518;10.870;2023-11-22T09:17:01;97464.97;;;-0.52;100.00
32933;BME280;19444;50.518;10.870;2023-11-22T09:20:02;97471.81;;;-0.83;100.00
32933;BME280;19444;50.518;10.870;2023-11-22T09:23:00;97468.81;;;-0.55;100.00
32933;BME280;19444;50.518;10.870;2023-11-22T09:25:56;97470.97;;;-0.70;100.00
32933;BME280;19444;50.518;10.870;2023-11-22T09:28:53;97487.41;;;-0.43;100.00
32933;BME280;19444;50.518;10.870;2023-11-22T09:31:50;97487.47;;;-0.57;100.00
32933;BME280;19444;50.518;10.870;2023-11-22T09:34:49;97486.16;;;-0.41;100.00
32933;BME280;19444;50.518;10.870;2023-11-22T09:37:48;97478.88;;;-0.14;100.00
32933;BME280;19444;50.518;10.870;2023-11-22T09:40:48;97466.84;;;-0.10;100.00
32933;BME280;19444;50.518;10.870;2023-11-22T09:43:46;97469.63;;;-0.23;100.00
32933;BME280;19444;50.518;10.870;2023-11-22T09:46:48;97473.81;;;-0.15;100.00
32933;BME280;19444;50.518;10.870;2023-11-22T09:49:46;97484.41;;;-0.22;100.00
32933;BME280;19444;50.518;10.870;2023-11-22T09:52:52;97498.34;;;-0.84;100.00
32933;BME280;19444;50.518;10.870;2023-11-22T09:55:52;97508.28;;;-0.17;100.00
32933;BME280;19444;50.518;10.870;2023-11-22T09:58:55;97502.97;;;-0.42;100.00
32933;BME280;19444;50.518;10.870;2023-11-22T10:01:53;97508.34;;;-0.30;100.00
32933;BME280;19444;50.518;10.870;2023-11-22T10:04:51;97503.16;;;0.13;100.00
32933;BME280;19444;50.518;10.870;2023-11-22T10:07:48;97515.53;;;0.13;100.00
32933;BME280;19444;50.518;10.870;2023-11-22T10:10:45;97514.59;;;0.25;100.00
32933;BME280;19444;50.518;10.870;2023-11-22T10:13:49;97522.69;;;0.06;100.00
32933;BME280;19444;50.518;10.870;2023-11-22T10:16:58;97512.19;;;-0.01;100.00
32933;BME280;19444;50.518;10.870;2023-11-22T10:19:56;97507.09;;;0.04;100.00
32933;BME280;19444;50.518;10.870;2023-11-22T10:22:53;97522.78;;;0.17;100.00
32933;BME280;19444;50.518;10.870;2023-11-22T10:25:53;97521.34;;;0.21;100.00
32933;BME280;19444;50.518;10.870;2023-11-22T10:28:54;97513.75;;;0.07;100.00
32933;BME280;19444;50.518;10.870;2023-11-22T10:31:52;97522.41;;;-0.11;100.00
32933;BME280;19444;50.518;10.870;2023-11-22T10:34:49;97516.13;;;0.58;100.00
32933;BME280;19444;50.518;10.870;2023-11-22T10:37:46;97511.97;;;0.87;100.00
32933;BME280;19444;50.518;10.870;2023-11-22T10:40:44;97511.66;;;0.59;100.00
32933;BME280;19444;50.518;10.870;2023-11-22T10:43:42;97509.03;;;0.59;100.00
32933;BME280;19444;50.518;10.870;2023-11-22T10:46:41;97519.41;;;0.53;100.00
32933;BME280;19444;50.518;10.870;2023-11-22T10:49:39;97523.91;;;0.90;100.00
32933;BME280;19444;50.518;10.870;2023-11-22T10:52:36;97516.38;;;1.83;100.00
32933;BME280;19444;50.518;10.870;2023-11-22T10:55:35;97511.22;;;1.88;100.00
32933;BME280;19444;50.518;10.870;2023-11-22T10:58:34;97499.59;;;1.89;100.00
32933;BME280;19444;50.518;10.870;2023-11-22T11:01:33;97511.34;;;1.52;100.00
32933;BME280;19444;50.518;10.870;2023-11-22T11:04:46;97511.78;;;1.19;100.00
32933;BME280;19444;50.518;10.870;2023-11-22T11:08:07;97519.28;;;1.03;100.00
32933;BME280;19444;50.518;10.870;2023-11-22T11:11:08;97528.34;;;1.86;100.00
32933;BME280;19444;50.518;10.870;2023-11-22T11:14:07;97537.78;;;1.63;100.00
32933;BME280;19444;50.518;10.870;2023-11-22T11:17:06;97543.31;;;1.62;100.00
32933;BME280;19444;50.518;10.870;2023-11-22T11:20:05;97547.94;;;2.32;100.00
32933;BME280;19444;50.518;10.870;2023-11-22T11:23:03;97544.47;;;2.08;100.00
32933;BME280;19444;50.518;10.870;2023-11-22T11:26:15;97547.38;;;2.41;100.00
32933;BME280;19444;50.518;10.870;2023-11-22T11:29:30;97555.09;;;2.43;99.60
32933;BME280;19444;50.518;10.870;2023-11-22T11:32:31;97562.63;;;1.44;100.00
32933;BME280;19444;50.518;10.870;2023-11-22T11:35:50;97564.84;;;1.77;100.00
32933;BME280;19444;50.518;10.870;2023-11-22T11:38:49;97556.97;;;1.59;100.00
32933;BME280;19444;50.518;10.870;2023-11-22T11:41:47;97569.75;;;1.74;100.00
32933;BME280;19444;50.518;10.870;2023-11-22T11:47:53;97560.81;;;2.16;100.00
32933;BME280;19444;50.518;10.870;2023-11-22T11:50:52;97568.47;;;1.64;100.00
32933;BME280;19444;50.518;10.870;2023-11-22T11:53:50;97570.50;;;2.69;99.69
32933;BME280;19444;50.518;10.870;2023-11-22T11:56:47;97568.81;;;1.56;100.00
32933;BME280;19444;50.518;10.870;2023-11-22T11:59:49;97561.16;;;1.78;100.00
32933;BME280;19444;50.518;10.870;2023-11-22T12:02:48;97545.53;;;2.30;100.00
32933;BME280;19444;50.518;10.870;2023-11-22T12:05:45;97554.72;;;2.27;100.00
32933;BME280;19444;50.518;10.870;2023-11-22T12:08:43;97549.22;;;2.41;100.00
32933;BME280;19444;50.518;10.870;2023-11-22T12:11:40;97534.53;;;1.91;100.00
32933;BME280;19444;50.518;10.870;2023-11-22T12:14:39;97544.28;;;2.44;100.00
32933;BME280;19444;50.518;10.870;2023-11-22T12:17:36;97537.84;;;2.40;100.00
32933;BME280;19444;50.518;10.870;2023-11-22T12:20:33;97531.75;;;2.40;100.00
32933;BME280;19444;50.518;10.870;2023-11-22T12:23:32;97531.38;;;2.24;100.00
32933;BME280;19444;50.518;10.870;2023-11-22T12:26:29;97542.34;;;1.86;100.00
32933;BME280;19444;50.518;10.870;2023-11-22T12:29:30;97543.91;;;2.17;100.00
32933;BME280;19444;50.518;10.870;2023-11-22T12:32:27;97530.19;;;0.89;100.00
32933;BME280;19444;50.518;10.870;2023-11-22T12:35:25;97529.91;;;1.75;100.00
32933;BME280;19444;50.518;10.870;2023-11-22T12:38:24;97532.66;;;1.38;100.00
32933;BME280;19444;50.518;10.870;2023-11-22T12:41:23;97519.47;;;1.92;100.00
32933;BME280;19444;50.518;10.870;2023-11-22T12:44:19;97523.13;;;1.67;100.00
32933;BME280;19444;50.518;10.870;2023-11-22T12:47:34;97512.94;;;1.94;100.00
32933;BME280;19444;50.518;10.870;2023-11-22T12:50:38;97505.41;;;1.68;100.00
32933;BME280;19444;50.518;10.870;2023-11-22T12:53:38;97510.66;;;1.98;100.00
32933;BME280;19444;50.518;10.870;2023-11-22T12:56:37;97492.66;;;2.30;100.00
32933;BME280;19444;50.518;10.870;2023-11-22T12:59:34;97484.28;;;1.68;100.00
32933;BME280;19444;50.518;10.870;2023-11-22T13:02:31;97490.94;;;1.29;100.00
32933;BME280;19444;50.518;10.870;2023-11-22T13:05:30;97478.00;;;0.91;100.00
32933;BME280;19444;50.518;10.870;2023-11-22T13:08:28;97488.97;;;1.24;100.00
32933;BME280;19444;50.518;10.870;2023-11-22T13:11:27;97466.75;;;1.97;100.00
32933;BME280;19444;50.518;10.870;2023-11-22T13:14:24;97449.19;;;2.14;100.00
32933;BME280;19444;50.518;10.870;2023-11-22T13:17:23;97446.59;;;1.73;100.00
32933;BME280;19444;50.518;10.870;2023-11-22T13:20:24;97453.91;;;1.47;100.00
32933;BME280;19444;50.518;10.870;2023-11-22T13:23:25;97467.06;;;1.65;100.00
32933;BME280;19444;50.518;10.870;2023-11-22T13:26:22;97465.59;;;1.39;100.00
32933;BME280;19444;50.518;10.870;2023-11-22T13:29:19;97469.91;;;1.22;100.00
32933;BME280;19444;50.518;10.870;2023-11-22T13:32:16;97479.38;;;1.11;100.00
32933;BME280;19444;50.518;10.870;2023-11-22T13:35:13;97510.56;;;1.33;100.00
32933;BME280;19444;50.518;10.870;2023-11-22T13:38:14;97505.84;;;1.23;100.00
32933;BME280;19444;50.518;10.870;2023-11-22T13:41:12;97509.97;;;1.49;100.00
32933;BME280;19444;50.518;10.870;2023-11-22T13:44:09;97520.22;;;1.57;100.00
32933;BME280;19444;50.518;10.870;2023-11-22T13:47:07;97510.13;;;1.36;100.00
32933;BME280;19444;50.518;10.870;2023-11-22T13:50:07;97498.19;;;1.33;100.00
32933;BME280;19444;50.518;10.870;2023-11-22T13:53:05;97500.69;;;1.58;100.00
32933;BME280;19444;50.518;10.870;2023-11-22T13:56:02;97496.75;;;1.49;100.00
32933;BME280;19444;50.518;10.870;2023-11-22T13:59:05;97507.84;;;1.39;100.00
32933;BME280;19444;50.518;10.870;2023-11-22T14:02:02;97512.94;;;1.53;100.00
32933;BME280;19444;50.518;10.870;2023-11-22T14:04:59;97521.81;;;1.58;100.00
32933;BME280;19444;50.518;10.870;2023-11-22T14:07:56;97508.47;;;1.83;100.00
32933;BME280;19444;50.518;10.870;2023-11-22T14:10:53;97509.03;;;1.97;100.00
32933;BME280;19444;50.518;10.870;2023-11-22T14:13:50;97502.25;;;2.01;100.00
32933;BME280;19444;50.518;10.870;2023-11-22T14:16:47;97508.00;;;1.86;100.00
32933;BME280;19444;50.518;10.870;2023-11-22T14:19:45;97487.47;;;1.58;100.00
32933;BME280;19444;50.518;10.870;2023-11-22T14:22:49;97470.50;;;1.66;100.00
32933;BME280;19444;50.518;10.870;2023-11-22T14:25:46;97474.31;;;1.28;100.00
32933;BME280;19444;50.518;10.870;2023-11-22T14:28:43;97464.59;;;1.52;100.00
32933;BME280;19444;50.518;10.870;2023-11-22T14:31:40;97461.25;;;1.45;100.00
32933;BME280;19444;50.518;10.870;2023-11-22T14:34:38;97458.34;;;1.35;100.00
32933;BME280;19444;50.518;10.870;2023-11-22T14:37:36;97460.75;;;1.36;100.00
32933;BME280;19444;50.518;10.870;2023-11-22T14:40:36;97453.78;;;1.54;100.00
32933;BME280;19444;50.518;10.870;2023-11-22T14:43:35;97460.44;;;1.45;100.00
32933;BME280;19444;50.518;10.870;2023-11-22T14:46:32;97463.94;;;1.27;100.00
32933;BME280;19444;50.518;10.870;2023-11-22T14:49:29;97461.03;;;1.47;100.00
32933;BME280;19444;50.518;10.870;2023-11-22T14:52:36;97475.47;;;1.44;100.00
32933;BME280;19444;50.518;10.870;2023-11-22T14:55:33;97486.81;;;0.84;100.00
32933;BME280;19444;50.518;10.870;2023-11-22T14:58:34;97492.88;;;1.03;100.00
32933;BME280;19444;50.518;10.870;2023-11-22T15:01:32;97490.78;;;1.24;100.00
32933;BME280;19444;50.518;10.870;2023-11-22T15:04:29;97497.38;;;1.33;100.00
32933;BME280;19444;50.518;10.870;2023-11-22T15:07:26;97497.91;;;0.75;100.00
32933;BME280;19444;50.518;10.870;2023-11-22T15:10:23;97505.66;;;0.88;100.00
32933;BME280;19444;50.518;10.870;2023-11-22T15:13:21;97506.66;;;1.05;100.00
32933;BME280;19444;50.518;10.870;2023-11-22T15:16:18;97512.94;;;1.23;100.00
32933;BME280;19444;50.518;10.870;2023-11-22T15:19:15;97523.22;;;1.31;100.00
32933;BME280;19444;50.518;10.870;2023-11-22T15:22:13;97524.13;;;0.88;100.00
32933;BME280;19444;50.518;10.870;2023-11-22T15:25:10;97527.47;;;0.59;100.00
32933;BME280;19444;50.518;10.870;2023-11-22T15:28:07;97525.50;;;0.54;100.00
32933;BME280;19444;50.518;10.870;2023-11-22T15:31:05;97528.88;;;0.61;100.00
32933;BME280;19444;50.518;10.870;2023-11-22T15:34:03;97541.75;;;0.51;100.00